Time;durP1;ratioP1;P1;durP2;ratioP2;P2;SDS_P1;SDS_P2;PMS_P1;PMS_P2;Temp;Humidity;BMP_temperature;BMP_pressure;BME280_temperature;BME280_humidity;BME280_pressure;Samples;Min_cycle;Max_cycle;Signal;HPM_P1;HPM_P2
2022/03/07 00:03:50;;;;;;;1.63;0.80;;;17.90;52.10;;;;;;10454834;28;20424;-57
2022/03/07 00:08:50;;;;;;;1.70;0.77;;;18.00;51.80;;;;;;10453240;28;20055;-57
2022/03/07 00:13:51;;;;;;;1.70;1.00;;;18.00;51.80;;;;;;10444873;28;20037;-57
2022/03/07 00:18:52;;;;;;;1.80;0.70;;;18.00;51.70;;;;;;10446360;28;20139;-56
2022/03/07 00:23:53;;;;;;;1.88;0.77;;;18.00;51.70;;;;;;10454538;28;20638;-56
2022/03/07 00:28:54;;;;;;;1.50;0.90;;;17.90;51.70;;;;;;10453124;28;20029;-57
2022/03/07 00:33:54;;;;;;;2.08;1.35;;;17.90;51.80;;;;;;10452708;28;20497;-58
2022/03/07 00:38:55;;;;;;;1.23;0.63;;;17.80;51.80;;;;;;10451233;28;20112;-56
2022/03/07 00:43:56;;;;;;;2.05;0.88;;;17.90;51.50;;;;;;10453799;28;20064;-58
2022/03/07 00:48:56;;;;;;;1.73;0.75;;;18.10;51.20;;;;;;10454185;28;20065;-57
2022/03/07 00:53:57;;;;;;;2.90;0.88;;;18.00;51.00;;;;;;10443235;28;20098;-56
2022/03/07 00:58:58;;;;;;;2.85;1.38;;;18.10;50.80;;;;;;10453870;28;20482;-56
2022/03/07 01:03:59;;;;;;;1.52;0.90;;;18.00;51.00;;;;;;10443427;28;20071;-56
2022/03/07 01:09:00;;;;;;;0.95;0.63;;;18.00;50.90;;;;;;10452355;28;20033;-57
2022/03/07 01:14:00;;;;;;;1.75;0.80;;;18.00;50.90;;;;;;10453387;28;20033;-57
2022/03/07 01:19:01;;;;;;;1.52;0.82;;;18.00;50.90;;;;;;10435743;28;20021;-57
2022/03/07 01:24:02;;;;;;;1.60;0.80;;;17.90;50.90;;;;;;10435102;28;20064;-56
2022/03/07 01:29:04;;;;;;;1.50;0.70;;;17.90;50.90;;;;;;10453429;28;20628;-56
2022/03/07 01:34:05;;;;;;;1.77;0.70;;;17.90;50.80;;;;;;10451300;28;20055;-57
2022/03/07 01:39:05;;;;;;;1.33;0.90;;;18.00;50.70;;;;;;10436495;28;20033;-56
2022/03/07 01:44:21;;;;;;;1.30;0.63;;;18.00;50.50;;;;;;10459063;28;20111;-57
2022/03/07 01:49:24;;;;;;;1.52;0.75;;;18.00;50.50;;;;;;10459474;28;20033;-57
2022/03/07 01:54:25;;;;;;;1.02;0.65;;;18.10;50.30;;;;;;10453220;28;20037;-57
2022/03/07 01:59:28;;;;;;;1.48;0.77;;;18.00;50.30;;;;;;10460427;28;20392;-57
2022/03/07 02:04:29;;;;;;;1.02;0.70;;;18.00;50.40;;;;;;10448005;28;20033;-57
2022/03/07 02:09:30;;;;;;;1.48;0.55;;;18.00;50.30;;;;;;10459740;28;20087;-57
2022/03/07 02:14:34;;;;;;;1.15;0.70;;;18.00;50.20;;;;;;10454380;28;20033;-57
2022/03/07 02:19:36;;;;;;;2.30;0.73;;;18.00;50.10;;;;;;10459424;28;20119;-56
2022/03/07 02:24:37;;;;;;;2.65;1.05;;;18.00;49.90;;;;;;10453606;28;20163;-57
2022/03/07 02:29:38;;;;;;;0.95;0.60;;;18.00;50.00;;;;;;10458978;28;20501;-57
2022/03/07 02:34:39;;;;;;;1.40;0.90;;;18.00;49.90;;;;;;10456958;28;20090;-56
2022/03/07 02:39:40;;;;;;;2.33;0.98;;;18.00;49.90;;;;;;10447527;28;20087;-56
2022/03/07 02:44:41;;;;;;;1.13;0.70;;;18.00;49.70;;;;;;10458017;28;20041;-57
2022/03/07 02:49:42;;;;;;;2.10;1.02;;;18.00;49.80;;;;;;10452839;28;20037;-57
2022/03/07 02:54:42;;;;;;;1.85;0.90;;;18.00;49.90;;;;;;10456869;28;20104;-57
2022/03/07 02:59:43;;;;;;;1.40;0.50;;;18.00;49.70;;;;;;10459836;28;20032;-58
2022/03/07 03:04:44;;;;;;;3.33;0.80;;;18.20;49.50;;;;;;10450323;28;20167;-57
2022/03/07 03:09:45;;;;;;;2.17;0.70;;;18.30;48.90;;;;;;10457094;28;20434;-57
2022/03/07 03:14:46;;;;;;;1.23;0.60;;;18.30;48.90;;;;;;10456736;28;20033;-57
2022/03/07 03:19:48;;;;;;;1.35;0.60;;;18.30;49.00;;;;;;10455652;28;20501;-57
2022/03/07 03:24:49;;;;;;;1.50;0.80;;;18.20;49.10;;;;;;10447813;28;20079;-57
2022/03/07 03:29:49;;;;;;;1.27;0.60;;;18.10;49.30;;;;;;10445292;28;20397;-57
2022/03/07 03:34:50;;;;;;;1.27;0.77;;;18.00;49.50;;;;;;10455814;28;20040;-57
2022/03/07 03:39:51;;;;;;;1.55;0.60;;;18.00;49.40;;;;;;10454618;28;20029;-57
2022/03/07 03:44:52;;;;;;;1.20;0.50;;;18.00;49.30;;;;;;10447947;28;20090;-57
2022/03/07 03:49:53;;;;;;;1.02;0.60;;;17.90;49.50;;;;;;10454500;28;20028;-56
2022/03/07 03:54:55;;;;;;;1.50;0.70;;;17.90;49.40;;;;;;10457375;28;20522;-57
2022/03/07 03:59:56;;;;;;;0.95;0.70;;;17.90;49.40;;;;;;10461253;28;20029;-58
2022/03/07 04:04:58;;;;;;;1.05;0.57;;;18.00;49.40;;;;;;10454463;28;20052;-57
2022/03/07 04:09:59;;;;;;;1.33;0.63;;;18.00;49.00;;;;;;10453419;28;20508;-57
2022/03/07 04:15:00;;;;;;;1.42;0.88;;;18.00;49.10;;;;;;10470103;28;20039;-56
2022/03/07 04:20:00;;;;;;;3.45;0.90;;;18.10;48.90;;;;;;10442467;28;20115;-58
2022/03/07 04:25:01;;;;;;;1.27;0.55;;;18.10;49.00;;;;;;10443608;28;20048;-57
2022/03/07 04:30:05;;;;;;;1.95;0.93;;;18.00;48.80;;;;;;10444443;28;20129;-58
2022/03/07 04:35:08;;;;;;;0.77;0.50;;;18.00;48.80;;;;;;10445748;28;20041;-57
2022/03/07 04:40:13;;;;;;;1.45;1.00;;;18.00;48.80;;;;;;10454234;28;20036;-58
2022/03/07 04:45:14;;;;;;;2.33;0.77;;;18.00;48.70;;;;;;10452726;28;20087;-58
2022/03/07 04:50:15;;;;;;;1.52;0.80;;;18.00;48.70;;;;;;10450412;28;20476;-56
2022/03/07 04:55:16;;;;;;;1.85;1.02;;;18.00;48.60;;;;;;10459011;28;20082;-56
2022/03/07 05:00:17;;;;;;;1.02;0.73;;;18.00;48.70;;;;;;10452011;28;20083;-56
2022/03/07 05:05:18;;;;;;;1.10;0.65;;;18.00;48.40;;;;;;10453463;28;20039;-57
2022/03/07 05:10:20;;;;;;;1.08;0.60;;;18.00;48.40;;;;;;10441209;28;20033;-57
2022/03/07 05:15:20;;;;;;;1.70;0.77;;;18.00;48.40;;;;;;10456283;28;20393;-56
2022/03/07 05:20:23;;;;;;;1.70;0.82;;;18.00;48.40;;;;;;10460000;28;20036;-57
2022/03/07 05:25:24;;;;;;;1.40;0.60;;;18.10;48.20;;;;;;10453420;28;20090;-57
2022/03/07 05:30:24;;;;;;;1.73;0.63;;;18.00;48.20;;;;;;10456812;28;20547;-57
2022/03/07 05:35:25;;;;;;;1.48;0.60;;;18.00;48.20;;;;;;10441874;28;20079;-57
2022/03/07 05:40:26;;;;;;;1.35;0.77;;;18.00;48.40;;;;;;10453263;28;20092;-57
2022/03/07 05:45:27;;;;;;;2.17;0.90;;;18.10;48.20;;;;;;10458847;28;20039;-57
2022/03/07 05:50:28;;;;;;;0.90;0.73;;;18.00;48.20;;;;;;10457238;28;20037;-56
2022/03/07 05:55:28;;;;;;;1.25;0.70;;;18.00;48.10;;;;;;10454079;28;20166;-57
2022/03/07 06:00:30;;;;;;;5.70;1.10;;;18.00;48.30;;;;;;10455966;28;20429;-57
2022/03/07 06:05:31;;;;;;;4.80;1.20;;;17.80;49.10;;;;;;10440024;28;20086;-57
2022/03/07 06:10:33;;;;;;;4.53;1.15;;;17.90;49.50;;;;;;10457029;28;20091;-56
2022/03/07 06:15:33;;;;;;;2.72;0.95;;;17.90;50.00;;;;;;10458470;28;20029;-57
2022/03/07 06:20:34;;;;;;;2.75;1.05;;;17.90;51.10;;;;;;10458730;28;20025;-56
2022/03/07 06:25:35;;;;;;;2.65;1.05;;;17.90;51.30;;;;;;10452433;28;20120;-56
2022/03/07 06:30:36;;;;;;;7.93;1.00;;;17.80;51.50;;;;;;10457618;28;20036;-57
2022/03/07 06:35:36;;;;;;;3.72;1.08;;;17.90;52.30;;;;;;10458548;28;20061;-57
2022/03/07 06:40:37;;;;;;;3.40;1.17;;;17.90;52.40;;;;;;10456409;28;20119;-55
2022/03/07 06:45:38;;;;;;;5.28;1.27;;;17.90;53.30;;;;;;10458143;28;20060;-56
2022/03/07 06:50:39;;;;;;;4.28;1.10;;;18.20;51.90;;;;;;10456483;28;20443;-56
2022/03/07 06:55:40;;;;;;;4.38;1.05;;;18.00;51.70;;;;;;10445458;28;20110;-58
2022/03/07 07:00:41;;;;;;;13.48;1.63;;;17.90;51.70;;;;;;10455646;28;20123;-56
2022/03/07 07:05:41;;;;;;;11.27;1.48;;;17.80;52.60;;;;;;10438258;28;20103;-57
2022/03/07 07:10:42;;;;;;;6.65;1.50;;;17.90;52.40;;;;;;10454593;28;20477;-56
2022/03/07 07:15:43;;;;;;;10.98;1.90;;;17.80;51.70;;;;;;10447142;28;20099;-57
2022/03/07 07:20:44;;;;;;;8.88;1.75;;;17.70;51.40;;;;;;10447812;28;20033;-54
2022/03/07 07:25:45;;;;;;;7.53;1.45;;;17.70;51.30;;;;;;10451420;28;20056;-56
2022/03/07 07:30:47;;;;;;;6.60;1.40;;;17.60;51.50;;;;;;10453763;28;20102;-56
2022/03/07 07:35:48;;;;;;;6.30;1.52;;;17.60;51.40;;;;;;10450605;28;20029;-55
2022/03/07 07:40:49;;;;;;;9.40;1.75;;;17.70;51.40;;;;;;10449085;28;20542;-56
2022/03/07 07:45:50;;;;;;;7.90;2.00;;;17.80;51.40;;;;;;10453006;28;20036;-56
2022/03/07 07:50:51;;;;;;;9.38;1.48;;;17.70;51.70;;;;;;10452066;28;20040;-55
2022/03/07 07:55:51;;;;;;;3.92;1.67;;;17.70;51.80;;;;;;10448192;28;20104;-56
2022/03/07 08:00:52;;;;;;;4.00;1.40;;;17.70;51.80;;;;;;10441970;28;20357;-57
2022/03/07 08:05:53;;;;;;;6.47;1.55;;;17.70;51.70;;;;;;10442530;28;20058;-55
2022/03/07 08:10:54;;;;;;;3.70;1.20;;;17.60;51.90;;;;;;10431742;28;20074;-56
2022/03/07 08:15:55;;;;;;;8.75;1.63;;;17.50;52.30;;;;;;10454411;28;20067;-56
2022/03/07 08:20:59;;;;;;;4.10;1.35;;;17.60;52.10;;;;;;10453978;28;20027;-56
2022/03/07 08:26:00;;;;;;;4.40;1.60;;;17.70;51.80;;;;;;10452520;28;20029;-55
2022/03/07 08:31:01;;;;;;;3.67;1.00;;;17.60;51.90;;;;;;10453811;28;20079;-56
2022/03/07 08:36:02;;;;;;;3.40;1.05;;;17.60;52.10;;;;;;10453818;28;20112;-56
2022/03/07 08:41:02;;;;;;;2.80;0.98;;;17.50;52.60;;;;;;10453633;28;20107;-56
2022/03/07 08:46:03;;;;;;;3.38;1.05;;;17.30;53.30;;;;;;10453546;28;20037;-54
2022/03/07 08:51:04;;;;;;;3.47;1.10;;;17.30;53.40;;;;;;10459936;28;20433;-56
2022/03/07 08:56:05;;;;;;;2.35;1.00;;;17.20;53.70;;;;;;10470106;28;20060;-55
2022/03/07 09:01:06;;;;;;;2.72;1.25;;;17.20;53.80;;;;;;10454443;28;20059;-56
2022/03/07 09:06:07;;;;;;;8.48;1.20;;;17.10;54.00;;;;;;10451792;28;20029;-55
2022/03/07 09:11:08;;;;;;;1.63;0.90;;;17.10;54.10;;;;;;10443681;28;20035;-56
2022/03/07 09:16:10;;;;;;;2.40;0.80;;;17.10;54.00;;;;;;10457825;28;20549;-56
2022/03/07 09:21:10;;;;;;;2.65;0.95;;;17.10;54.00;;;;;;10460874;28;20032;-56
2022/03/07 09:26:11;;;;;;;1.20;0.73;;;17.10;53.90;;;;;;10459571;28;20568;-55
2022/03/07 09:31:12;;;;;;;3.78;1.15;;;17.10;53.90;;;;;;10459344;28;20084;-56
2022/03/07 09:36:12;;;;;;;1.30;0.70;;;17.20;53.90;;;;;;10459113;28;20043;-56
2022/03/07 09:41:13;;;;;;;2.35;0.80;;;17.20;53.70;;;;;;10458925;28;20119;-56
2022/03/07 09:46:15;;;;;;;2.65;0.75;;;17.20;53.80;;;;;;10475638;28;20033;-55
2022/03/07 09:51:16;;;;;;;1.38;0.80;;;17.20;53.70;;;;;;10459053;28;20357;-56
2022/03/07 09:56:17;;;;;;;4.45;1.05;;;17.20;53.80;;;;;;10466880;28;20071;-56
2022/03/07 10:01:19;;;;;;;1.83;0.90;;;17.20;53.90;;;;;;10449049;28;20025;-56
2022/03/07 10:06:20;;;;;;;3.00;0.98;;;17.20;53.90;;;;;;10457920;28;20049;-54
2022/03/07 10:11:23;;;;;;;2.63;1.33;;;17.20;53.80;;;;;;10458948;28;20037;-56
2022/03/07 10:16:24;;;;;;;2.05;0.90;;;17.30;53.70;;;;;;10456740;28;20025;-55
2022/03/07 10:21:27;;;;;;;2.03;1.20;;;17.30;53.70;;;;;;10457275;28;20040;-56
2022/03/07 10:26:34;;;;;;;1.52;0.98;;;17.20;53.60;;;;;;10457594;28;20025;-55
2022/03/07 10:31:37;;;;;;;4.82;1.05;;;17.30;53.60;;;;;;10458045;28;20045;-53
2022/03/07 10:36:40;;;;;;;1.38;0.63;;;17.30;53.70;;;;;;10456892;28;20037;-56
2022/03/07 10:41:44;;;;;;;2.15;0.88;;;17.30;53.70;;;;;;10457918;28;20037;-54
2022/03/07 10:46:44;;;;;;;2.10;0.70;;;17.30;53.60;;;;;;10456716;28;20115;-55
2022/03/07 10:51:54;;;;;;;2.20;0.85;;;17.30;53.60;;;;;;10439338;28;20066;-56
2022/03/07 10:56:56;;;;;;;1.50;0.80;;;17.30;53.60;;;;;;10463687;28;20040;-55
2022/03/07 11:02:14;;;;;;;1.42;0.90;;;17.30;53.60;;;;;;10442689;28;20393;-55
2022/03/07 11:07:16;;;;;;;1.42;0.93;;;17.30;53.60;;;;;;10432503;28;20029;-56
2022/03/07 11:12:16;;;;;;;1.88;0.70;;;17.40;54.30;;;;;;10455417;28;20025;-56
2022/03/07 11:17:18;;;;;;;1.10;0.70;;;17.30;53.40;;;;;;10455356;28;20395;-57
2022/03/07 11:22:20;;;;;;;2.85;0.80;;;17.40;53.50;;;;;;10454557;28;20465;-56
2022/03/07 11:27:20;;;;;;;3.60;0.80;;;17.40;53.40;;;;;;10456830;28;20059;-56
2022/03/07 11:32:22;;;;;;;3.40;1.70;;;17.40;53.50;;;;;;10452135;28;20103;-55
2022/03/07 11:37:29;;;;;;;3.47;1.20;;;17.40;53.70;;;;;;10453814;28;20032;-56
2022/03/07 11:42:38;;;;;;;4.13;0.90;;;17.50;53.90;;;;;;10442195;28;20090;-56
2022/03/07 11:47:40;;;;;;;5.72;1.08;;;17.50;54.00;;;;;;10455807;28;20086;-56
2022/03/07 11:52:41;;;;;;;4.43;0.80;;;17.50;54.20;;;;;;10454467;28;20582;-56
2022/03/07 11:57:44;;;;;;;5.35;1.15;;;17.50;54.30;;;;;;10463262;28;20116;-56
2022/03/07 12:02:54;;;;;;;8.02;1.60;;;17.50;54.40;;;;;;10454312;28;20057;-56
2022/03/07 12:08:17;;;;;;;6.22;1.65;;;17.50;54.60;;;;;;10449595;28;20029;-56
2022/03/07 12:13:18;;;;;;;14.73;1.75;;;17.60;54.70;;;;;;10437342;28;20033;-56
2022/03/07 12:18:20;;;;;;;11.35;1.90;;;17.50;54.90;;;;;;10439027;28;20401;-57
2022/03/07 12:23:25;;;;;;;9.13;2.53;;;17.60;55.60;;;;;;10443123;28;20067;-56
2022/03/07 12:28:32;;;;;;;13.15;2.10;;;17.70;55.10;;;;;;10435317;28;20040;-54
2022/03/07 12:33:33;;;;;;;7.80;2.40;;;17.50;55.60;;;;;;10450856;28;20065;-56
2022/03/07 12:38:42;;;;;;;15.60;2.63;;;17.60;56.00;;;;;;10454105;28;20048;-56
2022/03/07 12:43:46;;;;;;;10.82;2.42;;;17.60;56.20;;;;;;10454336;28;20055;-57
2022/03/07 12:48:47;;;;;;;10.45;1.98;;;17.60;55.80;;;;;;10436679;28;20033;-57
2022/03/07 12:53:54;;;;;;;9.50;2.33;;;17.70;55.70;;;;;;10436293;28;20033;-57
2022/03/07 12:58:57;;;;;;;9.57;2.35;;;17.60;55.60;;;;;;10461233;28;20029;-58
2022/03/07 13:03:59;;;;;;;6.97;1.70;;;17.40;55.60;;;;;;10441381;28;20110;-56
2022/03/07 13:09:00;;;;;;;5.60;1.77;;;17.40;55.60;;;;;;10442720;28;20111;-56
2022/03/07 13:14:03;;;;;;;7.80;2.35;;;17.40;55.80;;;;;;10453040;28;20494;-57
2022/03/07 13:19:10;;;;;;;9.75;1.85;;;17.30;55.50;;;;;;10445602;28;20465;-58
2022/03/07 13:24:18;;;;;;;9.15;2.33;;;17.40;55.00;;;;;;10448536;28;20036;-57
2022/03/07 13:29:20;;;;;;;8.57;2.08;;;17.50;54.60;;;;;;10450900;28;20375;-56
2022/03/07 13:34:21;;;;;;;7.20;2.20;;;17.40;54.40;;;;;;10435475;28;20045;-56
2022/03/07 13:39:32;;;;;;;5.97;2.05;;;17.40;54.30;;;;;;10459637;28;20079;-57
2022/03/07 13:44:36;;;;;;;4.43;1.50;;;17.40;54.10;;;;;;10458730;28;20025;-56
2022/03/07 13:49:51;;;;;;;10.45;2.22;;;17.40;54.10;;;;;;10458805;28;20091;-57
2022/03/07 13:54:55;;;;;;;8.45;2.45;;;17.40;53.90;;;;;;10461407;28;20041;-57
2022/03/07 14:00:02;;;;;;;10.30;2.53;;;17.40;54.00;;;;;;10461679;28;20049;-56
2022/03/07 14:05:04;;;;;;;13.65;2.85;;;17.40;54.10;;;;;;10448140;28;20432;-60
2022/03/07 14:10:12;;;;;;;17.38;3.42;;;17.50;54.10;;;;;;10442008;28;20607;-57
2022/03/07 14:15:13;;;;;;;16.20;3.67;;;17.50;54.50;;;;;;10458558;28;20473;-57
2022/03/07 14:20:13;;;;;;;17.25;5.20;;;17.60;54.50;;;;;;10448982;28;20035;-56
2022/03/07 14:25:14;;;;;;;17.67;3.42;;;17.60;55.00;;;;;;10446263;28;20543;-56
2022/03/07 14:30:15;;;;;;;18.02;4.15;;;17.60;55.10;;;;;;10459213;28;20032;-56
2022/03/07 14:35:16;;;;;;;12.45;2.92;;;17.60;55.30;;;;;;10457182;28;20041;-58
2022/03/07 14:40:19;;;;;;;17.27;3.55;;;17.70;55.40;;;;;;10456178;28;20108;-56
2022/03/07 14:45:22;;;;;;;12.93;3.75;;;17.60;55.70;;;;;;10456396;28;20459;-56
2022/03/07 14:50:24;;;;;;;12.63;3.08;;;17.70;55.80;;;;;;10456239;28;20059;-58
2022/03/07 14:55:25;;;;;;;12.45;3.17;;;17.70;55.80;;;;;;10462429;28;20037;-57
2022/03/07 15:00:26;;;;;;;14.77;3.67;;;17.60;56.00;;;;;;10457805;28;20335;-56
2022/03/07 15:05:28;;;;;;;15.10;4.00;;;17.70;56.40;;;;;;10455908;28;20454;-58
2022/03/07 15:10:28;;;;;;;25.25;5.47;;;17.70;56.50;;;;;;10455466;28;20024;-58
2022/03/07 15:15:31;;;;;;;28.23;5.10;;;17.70;57.50;;;;;;10456076;28;20029;-58
2022/03/07 15:20:32;;;;;;;17.85;4.63;;;17.70;56.90;;;;;;10456669;28;20029;-58
2022/03/07 15:25:34;;;;;;;31.02;5.13;;;17.80;57.00;;;;;;10450141;28;20028;-57
2022/03/07 15:30:34;;;;;;;30.42;5.32;;;17.60;56.90;;;;;;10455523;28;20024;-58
2022/03/07 15:35:36;;;;;;;24.98;4.88;;;17.60;57.40;;;;;;10438260;28;20595;-59
2022/03/07 15:40:46;;;;;;;26.52;4.88;;;17.60;57.40;;;;;;10456029;28;20021;-61
2022/03/07 15:45:46;;;;;;;17.77;4.82;;;17.50;57.50;;;;;;10442246;28;20033;-58
2022/03/07 15:50:47;;;;;;;15.77;4.00;;;17.40;56.60;;;;;;10455803;28;20064;-58
2022/03/07 15:55:50;;;;;;;13.30;3.92;;;17.30;56.30;;;;;;10462724;28;20031;-58
2022/03/07 16:00:51;;;;;;;15.68;4.22;;;17.30;56.40;;;;;;10453012;28;20033;-59
2022/03/07 16:05:52;;;;;;;12.75;3.88;;;17.20;56.30;;;;;;10446579;28;20509;-58
2022/03/07 16:10:56;;;;;;;11.27;3.47;;;17.10;56.30;;;;;;10453231;28;20036;-58
2022/03/07 16:15:57;;;;;;;10.88;3.33;;;17.10;56.30;;;;;;10432733;28;20032;-59
2022/03/07 16:20:58;;;;;;;13.02;4.22;;;17.00;56.30;;;;;;10453032;28;20512;-59
2022/03/07 16:25:59;;;;;;;15.90;3.30;;;16.90;56.30;;;;;;10451194;28;20029;-59
2022/03/07 16:30:59;;;;;;;9.77;3.55;;;16.90;56.20;;;;;;10434598;28;20056;-57
2022/03/07 16:36:00;;;;;;;13.63;2.88;;;16.90;56.10;;;;;;10435491;28;20100;-60
2022/03/07 16:41:01;;;;;;;13.90;3.28;;;16.90;56.20;;;;;;10434033;28;20037;-58
2022/03/07 16:46:02;;;;;;;27.55;4.28;;;16.90;56.20;;;;;;10454408;28;20029;-59
2022/03/07 16:51:03;;;;;;;13.05;3.47;;;16.90;56.30;;;;;;10442907;28;20033;-59
2022/03/07 16:56:04;;;;;;;15.73;4.20;;;16.90;56.80;;;;;;10453288;28;20035;-58
2022/03/07 17:01:04;;;;;;;15.23;3.97;;;17.00;56.30;;;;;;10449470;28;20021;-60
2022/03/07 17:06:05;;;;;;;17.63;3.78;;;17.00;56.40;;;;;;10445597;28;20037;-59
2022/03/07 17:11:06;;;;;;;25.33;3.10;;;17.00;55.90;;;;;;10456787;28;20453;-59
2022/03/07 17:16:06;;;;;;;25.00;5.00;;;17.00;55.80;;;;;;10458624;28;20481;-58
2022/03/07 17:21:07;;;;;;;18.45;3.63;;;17.10;55.60;;;;;;10446014;28;20021;-57
2022/03/07 17:26:08;;;;;;;21.92;4.32;;;17.20;55.70;;;;;;10461357;28;20116;-57
2022/03/07 17:31:09;;;;;;;11.63;3.40;;;17.20;55.80;;;;;;10453600;28;20556;-57
2022/03/07 17:36:10;;;;;;;16.42;4.68;;;17.30;57.40;;;;;;10456109;28;20051;-58
2022/03/07 17:41:12;;;;;;;20.63;4.60;;;17.60;59.50;;;;;;10459708;28;20020;-56
2022/03/07 17:46:15;;;;;;;19.52;3.60;;;17.80;59.80;;;;;;10457671;28;20025;-58
2022/03/07 17:51:16;;;;;;;22.67;4.25;;;17.70;59.10;;;;;;10452814;28;20032;-57
2022/03/07 17:56:16;;;;;;;9.63;3.53;;;17.40;58.30;;;;;;10458941;28;20029;-58
2022/03/07 18:01:17;;;;;;;20.25;4.03;;;17.30;58.50;;;;;;10441807;28;20087;-58
2022/03/07 18:06:18;;;;;;;10.05;3.30;;;17.20;58.80;;;;;;10444966;28;20037;-58
2022/03/07 18:11:19;;;;;;;18.52;3.90;;;17.20;58.90;;;;;;10440510;28;20156;-59
2022/03/07 18:16:19;;;;;;;13.57;3.22;;;17.20;58.90;;;;;;10458395;28;20550;-59
2022/03/07 18:21:20;;;;;;;10.43;3.22;;;17.10;58.80;;;;;;10457471;28;20031;-58
2022/03/07 18:26:21;;;;;;;11.60;3.47;;;17.10;58.70;;;;;;10452569;28;20403;-58
2022/03/07 18:31:22;;;;;;;9.45;2.78;;;17.00;58.80;;;;;;10457999;28;20049;-58
2022/03/07 18:36:23;;;;;;;8.27;2.95;;;16.90;59.00;;;;;;10449212;28;20481;-59
2022/03/07 18:41:24;;;;;;;8.60;2.67;;;16.90;59.00;;;;;;10450799;28;20025;-59
2022/03/07 18:46:25;;;;;;;14.95;3.20;;;17.00;58.70;;;;;;10451693;28;20112;-58
2022/03/07 18:51:26;;;;;;;4.82;2.35;;;17.10;57.90;;;;;;10456813;28;20028;-58
2022/03/07 18:56:27;;;;;;;9.27;2.40;;;17.30;57.10;;;;;;10463741;28;20048;-58
2022/03/07 19:01:29;;;;;;;8.00;2.30;;;17.30;56.80;;;;;;10456970;28;20083;-58
2022/03/07 19:06:29;;;;;;;3.75;1.80;;;17.30;56.40;;;;;;10456692;28;20393;-59
2022/03/07 19:11:30;;;;;;;6.93;2.22;;;17.40;56.20;;;;;;10457536;28;20025;-58
2022/03/07 19:16:31;;;;;;;8.88;2.35;;;17.40;56.10;;;;;;10452330;28;20029;-59
2022/03/07 19:21:33;;;;;;;10.80;2.13;;;17.50;55.90;;;;;;10448586;28;20104;-59
2022/03/07 19:26:34;;;;;;;5.55;2.25;;;17.40;55.80;;;;;;10453759;28;20060;-60
2022/03/07 19:31:35;;;;;;;6.70;2.55;;;17.40;55.60;;;;;;10455035;28;20080;-59
2022/03/07 19:36:36;;;;;;;5.88;1.75;;;17.50;55.50;;;;;;10453271;28;20106;-58
2022/03/07 19:41:36;;;;;;;6.32;2.15;;;17.40;55.30;;;;;;10452785;28;20033;-59
2022/03/07 19:46:37;;;;;;;4.15;1.90;;;17.40;55.30;;;;;;10451971;28;20037;-58
2022/03/07 19:51:39;;;;;;;4.68;1.60;;;17.40;55.30;;;;;;10434209;28;20041;-59
2022/03/07 19:56:40;;;;;;;4.28;1.67;;;17.50;55.30;;;;;;10449021;28;20029;-59
2022/03/07 20:01:41;;;;;;;4.82;1.67;;;17.60;55.70;;;;;;10470224;28;20029;-59
2022/03/07 20:06:42;;;;;;;5.75;2.17;;;17.60;56.50;;;;;;10439662;28;20238;-59
2022/03/07 20:11:42;;;;;;;5.13;2.25;;;17.60;56.10;;;;;;10450876;28;20482;-59
2022/03/07 20:16:43;;;;;;;2.90;1.35;;;17.50;55.80;;;;;;10449333;28;20033;-59
2022/03/07 20:21:44;;;;;;;5.03;1.75;;;17.50;55.70;;;;;;10450632;28;20625;-58
2022/03/07 20:26:45;;;;;;;3.20;1.52;;;17.40;55.90;;;;;;10449529;28;20029;-58
2022/03/07 20:31:46;;;;;;;5.65;2.03;;;17.40;55.60;;;;;;10449209;28;20065;-58
2022/03/07 20:36:46;;;;;;;5.10;1.75;;;17.50;55.40;;;;;;10449034;28;20040;-59
2022/03/07 20:41:47;;;;;;;4.15;1.52;;;17.50;55.00;;;;;;10452122;28;20112;-59
2022/03/07 20:46:48;;;;;;;4.35;1.83;;;17.50;55.00;;;;;;10451377;28;20036;-59
2022/03/07 20:51:48;;;;;;;2.75;1.73;;;17.50;54.90;;;;;;10448957;28;20033;-59
2022/03/07 20:56:49;;;;;;;3.00;1.60;;;17.50;54.80;;;;;;10458495;28;20035;-60
2022/03/07 21:01:50;;;;;;;3.55;1.23;;;17.60;54.70;;;;;;10453677;28;20112;-58
2022/03/07 21:06:51;;;;;;;4.50;1.48;;;17.50;54.70;;;;;;10452933;28;20021;-59
2022/03/07 21:11:52;;;;;;;3.58;1.67;;;17.60;54.50;;;;;;10453650;28;20033;-59
2022/03/07 21:16:53;;;;;;;3.80;1.75;;;17.50;54.50;;;;;;10448492;28;20064;-59
2022/03/07 21:21:54;;;;;;;3.50;1.42;;;17.50;54.30;;;;;;10449003;28;20078;-58
2022/03/07 21:26:55;;;;;;;3.28;1.55;;;17.60;54.30;;;;;;10437440;28;20104;-59
2022/03/07 21:31:56;;;;;;;2.80;1.05;;;17.60;54.10;;;;;;10435070;28;20037;-59
2022/03/07 21:36:57;;;;;;;2.70;1.38;;;17.60;53.80;;;;;;10453170;28;20037;-59
2022/03/07 21:41:58;;;;;;;2.97;1.48;;;17.70;53.90;;;;;;10434711;28;20029;-59
2022/03/07 21:46:58;;;;;;;5.90;1.20;;;17.60;53.80;;;;;;10452229;28;20024;-59
2022/03/07 21:52:00;;;;;;;2.70;1.20;;;17.70;53.70;;;;;;10452794;28;20380;-60
2022/03/07 21:57:00;;;;;;;2.60;1.42;;;17.70;53.40;;;;;;10462761;28;20021;-59
2022/03/07 22:02:01;;;;;;;2.25;1.23;;;17.80;53.30;;;;;;10450219;28;20033;-60
2022/03/07 22:07:03;;;;;;;3.67;1.30;;;17.70;53.40;;;;;;10449661;28;20037;-59
2022/03/07 22:12:04;;;;;;;2.13;1.15;;;17.70;53.40;;;;;;10450555;28;20028;-58
2022/03/07 22:17:05;;;;;;;3.40;1.10;;;17.70;53.30;;;;;;10441902;28;20422;-58
2022/03/07 22:22:07;;;;;;;2.40;1.27;;;17.70;53.30;;;;;;10458507;28;20032;-58
2022/03/07 22:27:08;;;;;;;3.80;1.42;;;17.70;53.20;;;;;;10465070;28;20079;-58
2022/03/07 22:32:09;;;;;;;3.13;1.20;;;17.80;53.10;;;;;;10454942;28;20078;-59
2022/03/07 22:37:10;;;;;;;1.17;0.82;;;17.70;53.20;;;;;;10459147;28;20025;-59
2022/03/07 22:42:11;;;;;;;1.30;0.80;;;17.70;53.10;;;;;;10457098;28;20037;-59
2022/03/07 22:47:11;;;;;;;2.97;1.02;;;17.70;53.20;;;;;;10456586;28;20108;-58
2022/03/07 22:52:12;;;;;;;3.42;1.00;;;17.80;52.90;;;;;;10458133;28;20026;-59
2022/03/07 22:57:13;;;;;;;1.70;1.10;;;17.80;53.00;;;;;;10463460;28;20033;-58
2022/03/07 23:02:14;;;;;;;1.50;1.02;;;17.80;52.70;;;;;;10447555;28;20028;-58
2022/03/07 23:07:14;;;;;;;2.78;1.15;;;17.80;52.90;;;;;;10456429;28;20064;-58
2022/03/07 23:12:15;;;;;;;2.75;1.38;;;17.70;53.00;;;;;;10457395;28;20086;-59
2022/03/07 23:17:16;;;;;;;1.65;0.75;;;17.80;53.00;;;;;;10455968;28;20040;-58
2022/03/07 23:22:17;;;;;;;1.25;1.00;;;17.70;53.10;;;;;;10450856;28;20047;-60
2022/03/07 23:27:18;;;;;;;1.48;0.82;;;17.70;53.10;;;;;;10452946;28;20382;-58
2022/03/07 23:32:19;;;;;;;2.03;0.98;;;17.80;52.90;;;;;;10454867;28;20052;-60
2022/03/07 23:37:19;;;;;;;1.90;0.98;;;17.80;52.80;;;;;;10454576;28;20435;-59
2022/03/07 23:42:20;;;;;;;1.27;1.10;;;17.80;52.70;;;;;;10456205;28;20041;-59
2022/03/07 23:47:21;;;;;;;1.77;0.98;;;17.90;52.40;;;;;;10442817;28;20043;-58
2022/03/07 23:52:21;;;;;;;0.98;0.70;;;17.90;52.50;;;;;;10454300;28;20768;-58
2022/03/07 23:57:22;;;;;;;1.77;1.05;;;17.80;52.50;;;;;;10454476;28;20106;-59
